Time;durP1;ratioP1;P1;durP2;ratioP2;P2;SDS_P1;SDS_P2;PMS_P1;PMS_P2;Temp;Humidity;BMP_temperature;BMP_pressure;BME280_temperature;BME280_humidity;BME280_pressure;Samples;Min_cycle;Max_cycle;Signal;HPM_P1;HPM_P2
2020/12/28 00:01:02;;;;;;;5.80;3.83;;;3.90;99.90;;;;;;4991018;28;20463;-54
2020/12/28 00:03:28;;;;;;;5.33;4.17;;;4.00;99.90;;;;;;4992065;28;20451;-58
2020/12/28 00:05:54;;;;;;;5.60;3.80;;;4.00;99.90;;;;;;4993931;28;20479;-53
2020/12/28 00:08:21;;;;;;;5.90;3.60;;;4.10;99.90;;;;;;4993066;28;20528;-57
2020/12/28 00:10:47;;;;;;;5.80;3.73;;;4.10;99.90;;;;;;4993872;28;20910;-55
2020/12/28 00:13:14;;;;;;;8.20;3.70;;;4.10;99.90;;;;;;4993224;28;20451;-57
2020/12/28 00:15:41;;;;;;;4.60;3.33;;;4.10;99.90;;;;;;4994081;28;20548;-55
2020/12/28 00:18:08;;;;;;;5.83;3.33;;;4.10;99.90;;;;;;4993841;28;20446;-57
2020/12/28 00:20:34;;;;;;;4.40;3.30;;;4.10;99.90;;;;;;4992918;28;20455;-52
2020/12/28 00:23:00;;;;;;;7.93;6.10;;;4.10;99.90;;;;;;4993655;28;20459;-56
2020/12/28 00:25:28;;;;;;;9.30;4.10;;;4.20;99.90;;;;;;4992374;28;20506;-55
2020/12/28 00:27:55;;;;;;;7.83;3.93;;;4.20;99.90;;;;;;4992906;28;20482;-56
2020/12/28 00:30:22;;;;;;;7.77;3.77;;;4.10;99.90;;;;;;4993195;28;20814;-57
2020/12/28 00:32:49;;;;;;;4.13;3.30;;;4.10;99.90;;;;;;4993830;28;20451;-56
2020/12/28 00:35:16;;;;;;;10.40;4.17;;;4.10;99.90;;;;;;4993292;28;20510;-55
2020/12/28 00:37:42;;;;;;;5.03;3.93;;;4.00;99.90;;;;;;4993504;28;20458;-57
2020/12/28 00:40:10;;;;;;;5.90;4.07;;;4.00;99.90;;;;;;4993701;28;20538;-58
2020/12/28 00:42:37;;;;;;;8.70;4.10;;;4.00;99.90;;;;;;4993628;28;20497;-56
2020/12/28 00:45:05;;;;;;;5.80;3.83;;;4.00;99.90;;;;;;4992457;28;20474;-57
2020/12/28 00:47:32;;;;;;;6.07;3.50;;;4.10;99.90;;;;;;4992607;28;20510;-57
2020/12/28 00:49:58;;;;;;;6.87;4.10;;;4.20;99.90;;;;;;4992690;28;20518;-56
2020/12/28 00:52:25;;;;;;;6.67;4.37;;;4.30;99.90;;;;;;4992003;28;20466;-56
2020/12/28 00:54:51;;;;;;;6.57;3.50;;;4.30;99.90;;;;;;4991728;28;20502;-54
2020/12/28 00:57:17;;;;;;;6.03;4.07;;;4.30;99.90;;;;;;4991594;28;20526;-56
2020/12/28 00:59:44;;;;;;;7.63;4.30;;;4.30;99.90;;;;;;4992269;28;20478;-54
2020/12/28 01:02:10;;;;;;;6.83;3.97;;;4.30;99.90;;;;;;4991620;28;20485;-55
2020/12/28 01:04:37;;;;;;;7.30;4.03;;;4.30;99.90;;;;;;4991886;28;20443;-56
2020/12/28 01:07:04;;;;;;;7.17;4.77;;;4.30;99.90;;;;;;4990681;28;20551;-57
2020/12/28 01:09:30;;;;;;;8.63;4.27;;;4.30;99.90;;;;;;4991369;28;20482;-57
2020/12/28 01:11:57;;;;;;;8.37;4.83;;;4.40;99.90;;;;;;4992193;28;20455;-56
2020/12/28 01:14:23;;;;;;;5.40;3.37;;;4.30;99.90;;;;;;4991232;28;20489;-55
2020/12/28 01:16:50;;;;;;;6.30;4.03;;;4.30;99.90;;;;;;4991954;28;20447;-56
2020/12/28 01:19:16;;;;;;;5.43;4.07;;;4.20;99.90;;;;;;4992478;28;20455;-57
2020/12/28 01:21:43;;;;;;;5.17;3.63;;;4.30;99.90;;;;;;4991074;28;20522;-55
2020/12/28 01:24:10;;;;;;;8.47;4.50;;;4.20;99.90;;;;;;4991798;28;20443;-57
2020/12/28 01:26:36;;;;;;;10.67;4.70;;;4.20;99.90;;;;;;4991578;28;20545;-57
2020/12/28 01:29:03;;;;;;;5.40;4.00;;;4.10;99.90;;;;;;4991364;28;20442;-58
2020/12/28 01:31:29;;;;;;;9.37;4.10;;;4.10;99.90;;;;;;4991875;28;20459;-52
2020/12/28 01:33:56;;;;;;;10.90;5.87;;;4.20;99.90;;;;;;4991805;28;20454;-52
2020/12/28 01:36:22;;;;;;;8.00;4.93;;;4.20;99.90;;;;;;4992073;28;20533;-57
2020/12/28 01:38:49;;;;;;;6.80;4.50;;;4.20;99.90;;;;;;4992095;28;20494;-57
2020/12/28 01:41:16;;;;;;;12.53;4.70;;;4.10;99.90;;;;;;4992295;28;20481;-57
2020/12/28 01:43:42;;;;;;;6.77;3.43;;;4.10;99.90;;;;;;4992711;28;20481;-57
2020/12/28 01:46:09;;;;;;;6.37;3.90;;;4.10;99.90;;;;;;4991975;28;20447;-52
2020/12/28 01:48:36;;;;;;;7.53;4.07;;;4.10;99.90;;;;;;4992301;28;20482;-57
2020/12/28 01:51:03;;;;;;;7.83;4.40;;;4.20;99.90;;;;;;4991914;28;20443;-55
2020/12/28 01:53:29;;;;;;;5.20;3.90;;;4.20;99.90;;;;;;4991377;28;20490;-57
2020/12/28 01:56:01;;;;;;;9.60;5.43;;;4.10;99.90;;;;;;4991299;28;20515;-56
2020/12/28 01:58:28;;;;;;;9.60;4.40;;;4.10;99.90;;;;;;4992440;28;20419;-56
2020/12/28 02:00:54;;;;;;;8.77;4.83;;;4.20;99.90;;;;;;4991974;28;20467;-57
2020/12/28 02:03:22;;;;;;;8.40;4.20;;;4.10;99.90;;;;;;4991690;28;20475;-55
2020/12/28 02:05:49;;;;;;;9.30;5.70;;;4.10;99.90;;;;;;4991865;28;20443;-54
2020/12/28 02:08:16;;;;;;;7.40;5.57;;;4.10;99.90;;;;;;4991994;28;20506;-55
2020/12/28 02:10:42;;;;;;;6.67;4.73;;;4.10;99.90;;;;;;4991448;28;20546;-54
2020/12/28 02:13:09;;;;;;;9.40;5.60;;;4.10;99.90;;;;;;4992261;28;20471;-52
2020/12/28 02:15:36;;;;;;;6.67;4.43;;;4.00;99.90;;;;;;4992198;28;20483;-51
2020/12/28 02:18:03;;;;;;;7.93;5.13;;;4.10;99.90;;;;;;4992035;28;20466;-53
2020/12/28 02:20:29;;;;;;;6.47;3.73;;;4.10;99.90;;;;;;4991846;28;20482;-53
2020/12/28 02:22:56;;;;;;;8.87;4.30;;;4.10;99.90;;;;;;4991244;28;20458;-56
2020/12/28 02:25:23;;;;;;;6.83;4.87;;;4.10;99.90;;;;;;4989870;28;20510;-54
2020/12/28 02:27:49;;;;;;;7.80;5.37;;;4.20;99.90;;;;;;4990485;28;20554;-53
2020/12/28 02:30:15;;;;;;;6.93;3.83;;;4.10;99.90;;;;;;4990447;28;20443;-56
2020/12/28 02:32:43;;;;;;;6.47;4.40;;;4.10;99.90;;;;;;4990761;28;20489;-53
2020/12/28 02:35:09;;;;;;;9.73;4.50;;;4.10;99.90;;;;;;4990939;28;20462;-57
2020/12/28 02:37:35;;;;;;;7.30;5.07;;;4.10;99.90;;;;;;4989935;28;20506;-55
2020/12/28 02:40:03;;;;;;;9.30;5.17;;;4.10;99.90;;;;;;4990624;28;20908;-57
2020/12/28 02:42:29;;;;;;;5.03;3.93;;;4.10;99.90;;;;;;4990762;28;20470;-56
2020/12/28 02:44:55;;;;;;;9.07;5.13;;;4.20;99.90;;;;;;4990194;28;20474;-56
2020/12/28 02:47:22;;;;;;;5.03;3.47;;;4.20;99.90;;;;;;4990028;28;20506;-57
2020/12/28 02:49:48;;;;;;;7.20;4.77;;;4.20;99.90;;;;;;4990053;28;20498;-53
2020/12/28 02:52:15;;;;;;;12.03;5.17;;;4.20;99.90;;;;;;4989555;28;20458;-58
2020/12/28 02:54:41;;;;;;;6.70;4.50;;;4.20;99.90;;;;;;4989591;28;20491;-56
2020/12/28 02:57:09;;;;;;;5.20;4.30;;;4.20;99.90;;;;;;4990000;28;20485;-57
2020/12/28 02:59:35;;;;;;;9.87;5.73;;;4.10;99.90;;;;;;4989526;28;20451;-57
2020/12/28 03:02:01;;;;;;;8.70;4.33;;;4.10;99.90;;;;;;4989909;28;20473;-52
2020/12/28 03:04:28;;;;;;;6.67;4.10;;;4.10;99.90;;;;;;4989310;28;20466;-57
2020/12/28 03:06:54;;;;;;;6.63;4.43;;;4.10;99.90;;;;;;4990432;28;20483;-57
2020/12/28 03:09:20;;;;;;;7.47;4.47;;;4.20;99.90;;;;;;4988990;28;20471;-57
2020/12/28 03:11:47;;;;;;;7.23;5.03;;;4.30;99.90;;;;;;4989948;28;20932;-53
2020/12/28 03:14:14;;;;;;;8.33;4.30;;;4.30;99.90;;;;;;4989562;28;20443;-57
2020/12/28 03:16:41;;;;;;;7.37;4.47;;;4.20;99.90;;;;;;4989524;28;20455;-57
2020/12/28 03:19:07;;;;;;;8.13;5.77;;;4.20;99.90;;;;;;4989211;28;20443;-57
2020/12/28 03:21:36;;;;;;;5.43;4.63;;;4.20;99.90;;;;;;4989549;28;20514;-56
2020/12/28 03:24:03;;;;;;;8.17;4.97;;;4.20;99.90;;;;;;4988826;28;20959;-60
2020/12/28 03:26:29;;;;;;;6.07;3.90;;;4.30;99.90;;;;;;4988956;28;20486;-57
2020/12/28 03:28:55;;;;;;;8.87;5.07;;;4.30;99.90;;;;;;4989372;28;20490;-56
2020/12/28 03:31:26;;;;;;;5.63;4.17;;;4.40;99.90;;;;;;4989116;28;20479;-53
2020/12/28 03:33:53;;;;;;;6.10;4.90;;;4.30;99.90;;;;;;4988928;28;20466;-54
2020/12/28 03:36:19;;;;;;;8.63;4.67;;;4.30;99.90;;;;;;4989198;28;20457;-54
2020/12/28 03:38:45;;;;;;;8.57;4.40;;;4.30;99.90;;;;;;4992164;28;20478;-56
2020/12/28 03:41:12;;;;;;;7.27;4.70;;;4.40;99.90;;;;;;4992188;28;20474;-55
2020/12/28 03:43:39;;;;;;;5.27;4.13;;;4.40;99.90;;;;;;4993027;28;20450;-53
2020/12/28 03:46:06;;;;;;;8.60;4.90;;;4.30;99.90;;;;;;4992359;28;20469;-56
2020/12/28 03:48:33;;;;;;;9.40;5.00;;;4.30;99.90;;;;;;4992744;28;20577;-55
2020/12/28 03:51:00;;;;;;;6.50;4.43;;;4.30;99.90;;;;;;4992149;28;20451;-53
2020/12/28 03:53:26;;;;;;;8.60;5.03;;;4.30;99.90;;;;;;4992164;28;20470;-54
2020/12/28 03:55:52;;;;;;;8.97;5.60;;;4.30;99.90;;;;;;4992894;28;20911;-54
2020/12/28 03:58:19;;;;;;;7.17;4.87;;;4.40;99.90;;;;;;4993024;28;20470;-56
2020/12/28 04:00:46;;;;;;;6.60;4.07;;;4.40;99.90;;;;;;4993181;28;20494;-56
2020/12/28 04:03:12;;;;;;;7.40;4.50;;;4.40;99.90;;;;;;4993322;28;20454;-58
2020/12/28 04:05:39;;;;;;;7.90;5.80;;;4.40;99.90;;;;;;4992264;28;21051;-56
2020/12/28 04:08:06;;;;;;;6.30;4.30;;;4.40;99.90;;;;;;5023100;23;20483;-57
2020/12/28 04:10:33;;;;;;;7.40;4.10;;;4.30;99.90;;;;;;5005407;23;20819;-57
2020/12/28 04:12:59;;;;;;;6.90;4.33;;;4.30;99.90;;;;;;4992865;28;20514;-56
2020/12/28 04:15:26;;;;;;;4.57;3.90;;;4.30;99.90;;;;;;4992476;28;20493;-57
2020/12/28 04:17:52;;;;;;;9.63;4.33;;;4.30;99.90;;;;;;4992199;28;20483;-54
2020/12/28 04:20:18;;;;;;;7.90;4.43;;;4.30;99.90;;;;;;4992625;28;20457;-56
2020/12/28 04:22:46;;;;;;;7.53;4.60;;;4.20;99.90;;;;;;4992545;28;20470;-57
2020/12/28 04:25:14;;;;;;;5.90;4.17;;;4.20;99.90;;;;;;4992235;28;20856;-56
2020/12/28 04:27:41;;;;;;;8.00;4.73;;;4.20;99.90;;;;;;4992592;28;20513;-57
2020/12/28 04:30:08;;;;;;;4.87;3.50;;;4.20;99.90;;;;;;4992176;28;20506;-57
2020/12/28 04:32:34;;;;;;;5.80;4.37;;;4.20;99.90;;;;;;4992396;28;20901;-57
2020/12/28 04:35:01;;;;;;;17.53;5.40;;;4.20;99.90;;;;;;4991978;28;20530;-55
2020/12/28 04:37:27;;;;;;;5.33;3.60;;;4.20;99.90;;;;;;4992402;28;20443;-57
2020/12/28 04:39:54;;;;;;;9.77;3.90;;;4.30;99.90;;;;;;4993045;28;20497;-57
2020/12/28 04:42:25;;;;;;;6.50;4.77;;;4.20;99.90;;;;;;4993164;28;20478;-57
2020/12/28 04:44:51;;;;;;;5.30;4.07;;;4.30;99.90;;;;;;4992011;28;20526;-56
2020/12/28 04:47:18;;;;;;;8.47;4.40;;;4.30;99.90;;;;;;4991652;28;20600;-53
2020/12/28 04:49:46;;;;;;;6.57;5.10;;;4.40;99.90;;;;;;4991560;28;20447;-55
2020/12/28 04:52:12;;;;;;;5.53;3.90;;;4.30;99.90;;;;;;4991122;28;20474;-53
2020/12/28 04:54:39;;;;;;;8.93;4.80;;;4.30;99.90;;;;;;4991441;28;20463;-56
2020/12/28 04:57:06;;;;;;;5.50;4.13;;;4.40;99.90;;;;;;4991262;28;20447;-55
2020/12/28 04:59:33;;;;;;;6.20;4.53;;;4.30;99.90;;;;;;4991392;28;20972;-54
2020/12/28 05:01:59;;;;;;;6.80;4.37;;;4.40;99.90;;;;;;4991642;28;20471;-55
2020/12/28 05:04:26;;;;;;;5.57;4.33;;;4.40;99.90;;;;;;4991990;28;20478;-56
2020/12/28 05:07:00;;;;;;;7.20;4.23;;;4.40;99.90;;;;;;4992403;28;20489;-56
2020/12/28 05:09:26;;;;;;;6.60;4.50;;;4.30;99.90;;;;;;4992160;28;20512;-55
2020/12/28 05:11:55;;;;;;;5.73;4.03;;;4.30;99.90;;;;;;4992267;28;20443;-55
2020/12/28 05:14:23;;;;;;;7.37;5.47;;;4.30;99.90;;;;;;4991568;28;20462;-51
2020/12/28 05:16:50;;;;;;;5.40;3.70;;;4.40;99.90;;;;;;4991657;28;20455;-57
2020/12/28 05:19:21;;;;;;;6.23;4.50;;;4.30;99.90;;;;;;4992114;28;20467;-54
2020/12/28 05:21:47;;;;;;;6.97;4.23;;;4.30;99.90;;;;;;4991774;28;20431;-57
2020/12/28 05:24:15;;;;;;;6.20;4.60;;;4.30;99.90;;;;;;4991540;28;20459;-56
2020/12/28 05:26:43;;;;;;;5.30;3.93;;;4.40;99.90;;;;;;4991877;28;20474;-54
2020/12/28 05:29:14;;;;;;;7.80;5.23;;;4.40;99.90;;;;;;4991502;28;20461;-57
2020/12/28 05:31:43;;;;;;;6.70;4.70;;;4.40;99.90;;;;;;4991233;28;20447;-57
2020/12/28 05:34:15;;;;;;;5.97;4.90;;;4.40;99.90;;;;;;4991322;28;20455;-56
2020/12/28 05:36:42;;;;;;;7.83;5.33;;;4.40;99.90;;;;;;4991034;28;20497;-58
2020/12/28 05:39:13;;;;;;;7.33;4.60;;;4.40;99.90;;;;;;4990953;28;20474;-54
2020/12/28 05:41:39;;;;;;;6.17;4.33;;;4.40;99.90;;;;;;4991654;28;20490;-56
2020/12/28 05:44:10;;;;;;;6.80;4.50;;;4.40;99.90;;;;;;4991120;28;20465;-57
2020/12/28 05:46:36;;;;;;;8.67;5.20;;;4.40;99.90;;;;;;4991236;28;20478;-54
2020/12/28 05:49:07;;;;;;;7.60;5.30;;;4.40;99.90;;;;;;4991321;28;20446;-51
2020/12/28 05:51:35;;;;;;;8.20;5.00;;;4.40;99.90;;;;;;4991693;28;20439;-54
2020/12/28 05:54:10;;;;;;;6.80;5.00;;;4.40;99.90;;;;;;4991544;28;20447;-53
2020/12/28 05:56:42;;;;;;;6.67;4.60;;;4.40;99.90;;;;;;4991359;28;20478;-55
2020/12/28 05:59:11;;;;;;;7.40;5.53;;;4.50;99.90;;;;;;4990546;28;20435;-54
2020/12/28 06:01:42;;;;;;;10.07;6.80;;;4.50;99.90;;;;;;4988722;28;20497;-52
2020/12/28 06:04:13;;;;;;;6.87;5.27;;;4.50;99.90;;;;;;4990177;28;20447;-58
2020/12/28 06:06:40;;;;;;;7.27;4.70;;;4.50;99.90;;;;;;4990109;28;20463;-57
2020/12/28 06:09:07;;;;;;;6.83;5.17;;;4.50;99.90;;;;;;4990577;28;20504;-57
2020/12/28 06:11:34;;;;;;;8.07;6.40;;;4.50;99.90;;;;;;4989642;28;20445;-57
2020/12/28 06:14:11;;;;;;;6.60;5.13;;;4.50;99.90;;;;;;4990165;28;20894;-57
2020/12/28 06:16:37;;;;;;;6.43;4.83;;;4.50;99.90;;;;;;4989429;28;20478;-53
2020/12/28 06:19:04;;;;;;;8.00;4.73;;;4.50;99.90;;;;;;4990264;28;20538;-55
2020/12/28 06:21:37;;;;;;;8.37;5.33;;;4.50;99.90;;;;;;4989266;28;20457;-53
2020/12/28 06:24:04;;;;;;;8.47;5.40;;;4.50;99.90;;;;;;4989218;28;20906;-55
2020/12/28 06:26:30;;;;;;;7.67;5.30;;;4.50;99.90;;;;;;4989305;28;20462;-57
2020/12/28 06:29:07;;;;;;;9.80;5.30;;;4.50;99.90;;;;;;4989113;28;20835;-52
2020/12/28 06:31:33;;;;;;;8.10;5.80;;;4.60;99.90;;;;;;4988098;28;20876;-57
2020/12/28 06:34:00;;;;;;;7.40;5.63;;;4.60;99.90;;;;;;4988528;28;20481;-53
2020/12/28 06:36:26;;;;;;;5.60;4.47;;;4.60;99.90;;;;;;4989003;28;21033;-56
2020/12/28 06:38:57;;;;;;;10.13;5.40;;;4.60;99.90;;;;;;4988930;28;20477;-55
2020/12/28 06:41:28;;;;;;;7.60;5.10;;;4.60;99.90;;;;;;4989414;28;20458;-52
2020/12/28 06:44:01;;;;;;;6.93;5.60;;;4.50;99.90;;;;;;4989251;28;20510;-55
2020/12/28 06:46:28;;;;;;;8.40;5.50;;;4.50;99.90;;;;;;4989767;28;20485;-55
2020/12/28 06:48:55;;;;;;;9.50;5.83;;;4.50;99.90;;;;;;4990047;28;20506;-56
2020/12/28 06:51:23;;;;;;;9.47;5.33;;;4.40;99.90;;;;;;4988720;28;20840;-56
2020/12/28 06:53:52;;;;;;;8.07;5.43;;;4.40;99.90;;;;;;4989915;28;20461;-56
2020/12/28 06:56:20;;;;;;;7.33;5.03;;;4.30;99.90;;;;;;4989998;28;20769;-56
2020/12/28 06:58:56;;;;;;;7.43;5.30;;;4.30;99.90;;;;;;4990599;28;20466;-53
2020/12/28 07:01:24;;;;;;;7.43;5.63;;;4.20;99.90;;;;;;4990151;28;20451;-57
2020/12/28 07:03:51;;;;;;;9.33;6.77;;;4.20;99.90;;;;;;4989396;28;20442;-58
2020/12/28 07:06:18;;;;;;;9.43;5.90;;;4.20;99.90;;;;;;4990301;28;20506;-57
2020/12/28 07:08:45;;;;;;;8.87;5.07;;;4.20;99.90;;;;;;4988835;28;20495;-55
2020/12/28 07:11:16;;;;;;;8.70;5.70;;;4.10;99.90;;;;;;4990292;28;20578;-57
2020/12/28 07:13:43;;;;;;;6.77;5.60;;;4.10;99.90;;;;;;4990189;28;20431;-58
2020/12/28 07:16:10;;;;;;;9.70;5.90;;;4.10;99.90;;;;;;4990513;28;20511;-57
2020/12/28 07:18:37;;;;;;;6.93;5.37;;;4.10;99.90;;;;;;4989836;28;20792;-55
2020/12/28 07:21:04;;;;;;;8.70;6.47;;;4.10;99.90;;;;;;4990950;28;20526;-57
2020/12/28 07:23:31;;;;;;;10.20;5.63;;;4.10;99.90;;;;;;4980521;28;20468;-58
2020/12/28 07:26:07;;;;;;;9.03;6.73;;;4.10;99.90;;;;;;4988502;28;20478;-61
2020/12/28 07:28:34;;;;;;;8.90;6.63;;;4.10;99.90;;;;;;4976066;28;20498;-61
2020/12/28 07:31:03;;;;;;;8.20;5.53;;;4.00;99.90;;;;;;4978111;28;20459;-61
2020/12/28 07:33:31;;;;;;;7.20;5.33;;;4.00;99.90;;;;;;4980566;28;20468;-60
2020/12/28 07:36:05;;;;;;;10.63;5.80;;;4.00;99.90;;;;;;4978741;28;21008;-59
2020/12/28 07:38:32;;;;;;;9.50;6.57;;;3.90;99.90;;;;;;4972369;28;20443;-59
2020/12/28 07:40:59;;;;;;;7.97;4.93;;;3.90;99.90;;;;;;4970787;29;20524;-59
2020/12/28 07:43:26;;;;;;;5.63;5.10;;;3.90;99.90;;;;;;4970890;29;20455;-58
2020/12/28 07:45:53;;;;;;;7.03;5.77;;;3.90;99.90;;;;;;4970335;29;20484;-56
2020/12/28 07:48:22;;;;;;;8.97;5.17;;;3.90;99.90;;;;;;4969939;29;20483;-58
2020/12/28 07:50:53;;;;;;;11.10;6.67;;;4.00;99.90;;;;;;4970550;29;20472;-57
2020/12/28 07:53:25;;;;;;;7.97;5.20;;;4.00;99.90;;;;;;4969943;29;20493;-60
2020/12/28 07:55:59;;;;;;;7.50;5.60;;;4.00;99.90;;;;;;4970660;29;20428;-60
2020/12/28 07:58:39;;;;;;;7.00;6.00;;;4.00;99.90;;;;;;4970408;29;20479;-59
2020/12/28 08:01:14;;;;;;;8.27;5.00;;;4.10;99.90;;;;;;4970003;29;20909;-59
2020/12/28 08:03:47;;;;;;;9.77;6.03;;;4.10;99.90;;;;;;4970036;29;20459;-60
2020/12/28 08:06:15;;;;;;;9.87;6.27;;;4.10;99.90;;;;;;4970105;29;20482;-59
2020/12/28 08:08:42;;;;;;;8.53;5.90;;;4.10;99.90;;;;;;4968935;29;20484;-59
2020/12/28 08:11:08;;;;;;;7.73;5.80;;;4.10;99.90;;;;;;4969560;29;20439;-60
2020/12/28 08:13:36;;;;;;;8.97;5.93;;;4.10;99.90;;;;;;4969354;29;20467;-59
2020/12/28 08:16:09;;;;;;;8.73;6.13;;;4.20;99.90;;;;;;4969428;29;20580;-60
2020/12/28 08:18:47;;;;;;;10.33;5.70;;;4.10;99.90;;;;;;4969973;29;20527;-59
2020/12/28 08:21:14;;;;;;;10.10;6.90;;;4.20;99.90;;;;;;4969427;29;20468;-57
2020/12/28 08:23:40;;;;;;;8.57;5.83;;;4.20;99.90;;;;;;4987305;28;20947;-60
2020/12/28 08:26:17;;;;;;;27.83;8.50;;;4.20;99.90;;;;;;4992896;28;20462;-60
2020/12/28 08:28:47;;;;;;;8.73;6.03;;;4.20;99.90;;;;;;4992317;28;20478;-59
2020/12/28 08:31:14;;;;;;;9.57;6.40;;;4.20;99.90;;;;;;4992233;28;20466;-59
2020/12/28 08:33:40;;;;;;;9.00;5.90;;;4.20;99.90;;;;;;4993190;28;20467;-59
2020/12/28 08:36:07;;;;;;;10.67;5.80;;;4.20;99.90;;;;;;4992823;28;20451;-60
2020/12/28 08:38:34;;;;;;;11.07;6.20;;;4.30;99.90;;;;;;4992018;28;20494;-58
2020/12/28 08:41:00;;;;;;;9.50;6.40;;;4.30;99.90;;;;;;4992189;28;20462;-54
2020/12/28 08:43:30;;;;;;;9.23;5.60;;;4.40;99.90;;;;;;4988282;28;20538;-57
2020/12/28 08:46:04;;;;;;;9.53;6.20;;;4.40;99.90;;;;;;4972406;29;20436;-57
2020/12/28 08:48:31;;;;;;;13.73;7.10;;;4.50;99.90;;;;;;4971789;29;20914;-60
2020/12/28 08:50:57;;;;;;;10.10;6.73;;;4.60;99.90;;;;;;4971261;29;20456;-60
2020/12/28 08:53:25;;;;;;;9.07;7.20;;;4.60;99.90;;;;;;4972381;29;20448;-59
2020/12/28 08:55:59;;;;;;;8.20;5.87;;;4.60;99.90;;;;;;4971597;29;20495;-60
2020/12/28 08:58:25;;;;;;;12.20;6.67;;;4.70;99.90;;;;;;4970526;29;20475;-63
2020/12/28 09:00:51;;;;;;;8.47;6.10;;;4.70;99.90;;;;;;4969408;29;20460;-61
2020/12/28 09:03:18;;;;;;;10.57;6.90;;;4.70;99.90;;;;;;4970081;29;20905;-60
2020/12/28 09:05:44;;;;;;;9.30;5.67;;;4.80;99.90;;;;;;4970241;29;20853;-62
2020/12/28 09:08:11;;;;;;;10.87;6.57;;;4.80;99.90;;;;;;4969287;29;20522;-62
2020/12/28 09:10:38;;;;;;;12.83;7.20;;;4.90;99.90;;;;;;4969320;29;20615;-62
2020/12/28 09:13:05;;;;;;;10.90;6.87;;;4.90;99.90;;;;;;4970895;29;20472;-62
2020/12/28 09:15:31;;;;;;;13.10;6.47;;;4.90;99.90;;;;;;4970412;29;20463;-62
2020/12/28 09:17:57;;;;;;;9.73;5.83;;;5.10;99.90;;;;;;4970036;29;20440;-61
2020/12/28 09:20:24;;;;;;;9.77;6.80;;;6.50;99.90;;;;;;4968619;29;20455;-61
2020/12/28 09:22:50;;;;;;;9.43;6.20;;;6.80;99.90;;;;;;4982196;28;20525;-63
2020/12/28 09:25:17;;;;;;;9.17;5.73;;;6.60;99.90;;;;;;4998165;28;20510;-61
2020/12/28 09:27:44;;;;;;;14.10;7.60;;;6.30;99.90;;;;;;4991589;28;20507;-61
2020/12/28 09:30:11;;;;;;;8.40;6.50;;;6.10;99.90;;;;;;4996986;28;20502;-62
2020/12/28 09:32:39;;;;;;;9.43;6.40;;;6.00;99.90;;;;;;4994582;28;20502;-61
2020/12/28 09:35:05;;;;;;;10.03;6.30;;;5.90;99.90;;;;;;4990853;28;20514;-64
2020/12/28 09:37:32;;;;;;;10.90;6.87;;;5.90;99.90;;;;;;4992665;28;20443;-64
2020/12/28 09:39:58;;;;;;;10.17;6.50;;;5.70;99.90;;;;;;4997969;28;20482;-64
2020/12/28 09:42:25;;;;;;;7.53;6.37;;;5.60;99.90;;;;;;4989616;28;20447;-64
2020/12/28 09:44:52;;;;;;;11.37;8.00;;;5.60;99.90;;;;;;4980806;28;20475;-63
2020/12/28 09:47:18;;;;;;;10.17;6.87;;;5.50;99.90;;;;;;4984403;28;20960;-62
2020/12/28 09:49:45;;;;;;;6.93;5.57;;;5.50;99.90;;;;;;4990433;28;20532;-63
2020/12/28 09:52:11;;;;;;;8.87;6.17;;;5.50;99.90;;;;;;4980079;28;20865;-64
2020/12/28 09:54:39;;;;;;;10.17;6.30;;;5.40;99.90;;;;;;4989087;28;20479;-62
2020/12/28 09:57:06;;;;;;;6.70;4.70;;;5.40;99.90;;;;;;5000240;28;20460;-62
2020/12/28 09:59:34;;;;;;;11.17;6.13;;;5.40;99.90;;;;;;4998003;28;20447;-61
2020/12/28 10:02:01;;;;;;;10.40;6.83;;;5.40;99.90;;;;;;4985683;28;20929;-62
2020/12/28 10:04:27;;;;;;;10.83;5.83;;;5.40;99.90;;;;;;4985523;28;20483;-62
2020/12/28 10:06:54;;;;;;;11.87;6.17;;;5.30;99.90;;;;;;4986714;28;20458;-62
2020/12/28 10:09:20;;;;;;;10.30;5.83;;;5.40;99.90;;;;;;4987716;28;20490;-62
2020/12/28 10:11:47;;;;;;;10.70;6.90;;;5.30;99.90;;;;;;4987776;28;20443;-62
2020/12/28 10:14:14;;;;;;;6.77;5.20;;;5.30;99.90;;;;;;4987376;28;20458;-61
2020/12/28 10:16:40;;;;;;;8.30;6.33;;;5.30;99.90;;;;;;4987492;28;20522;-63
2020/12/28 10:19:08;;;;;;;10.37;6.47;;;5.20;99.90;;;;;;4987858;28;20494;-63
2020/12/28 10:21:34;;;;;;;12.03;6.80;;;5.30;99.90;;;;;;4987509;28;20447;-61
2020/12/28 10:24:03;;;;;;;9.23;7.10;;;5.30;99.90;;;;;;4987695;28;20471;-62
2020/12/28 10:26:30;;;;;;;10.07;6.23;;;5.30;99.90;;;;;;4987903;28;20449;-62
2020/12/28 10:28:57;;;;;;;11.70;7.17;;;5.40;99.90;;;;;;4987347;28;20524;-62
2020/12/28 10:31:24;;;;;;;7.97;6.03;;;5.30;99.90;;;;;;4986265;28;20485;-61
2020/12/28 10:33:51;;;;;;;9.40;6.20;;;5.40;99.90;;;;;;4987150;28;20447;-62
2020/12/28 10:36:20;;;;;;;7.57;6.20;;;5.50;99.90;;;;;;4986834;28;20495;-62
2020/12/28 10:38:47;;;;;;;10.40;5.60;;;5.60;99.90;;;;;;4986426;28;20551;-62
2020/12/28 10:41:13;;;;;;;8.77;6.07;;;5.70;99.90;;;;;;4986886;28;20588;-62
2020/12/28 10:43:40;;;;;;;11.20;6.57;;;5.80;99.90;;;;;;4986185;28;20475;-61
2020/12/28 10:46:07;;;;;;;9.40;5.60;;;5.80;99.90;;;;;;4986178;28;20466;-61
2020/12/28 10:48:34;;;;;;;8.73;4.80;;;5.90;99.90;;;;;;4986197;28;20514;-61
2020/12/28 10:51:00;;;;;;;6.83;5.20;;;5.90;99.90;;;;;;4987007;28;20471;-62
2020/12/28 10:53:28;;;;;;;7.37;4.67;;;5.90;99.90;;;;;;4986113;28;20505;-62
2020/12/28 10:55:54;;;;;;;6.80;4.50;;;5.80;99.90;;;;;;4986373;28;20475;-62
2020/12/28 10:58:20;;;;;;;7.37;5.10;;;5.80;99.90;;;;;;4986553;28;20450;-62
2020/12/28 11:00:51;;;;;;;6.57;4.07;;;5.80;99.90;;;;;;4986931;28;20916;-62
2020/12/28 11:03:17;;;;;;;9.33;6.10;;;5.80;99.90;;;;;;4986602;28;20514;-62
2020/12/28 11:05:44;;;;;;;9.40;5.10;;;5.80;99.90;;;;;;4986323;28;20479;-62
2020/12/28 11:08:10;;;;;;;8.93;5.27;;;5.80;99.90;;;;;;4986870;28;20522;-63
2020/12/28 11:10:37;;;;;;;9.97;5.70;;;5.70;99.90;;;;;;4987253;28;20511;-62
2020/12/28 11:13:04;;;;;;;10.33;5.30;;;5.70;99.90;;;;;;4986368;28;20502;-61
2020/12/28 11:15:30;;;;;;;8.73;5.10;;;5.80;99.90;;;;;;4985759;28;20507;-62
2020/12/28 11:17:57;;;;;;;6.80;4.57;;;5.80;99.90;;;;;;4986454;28;20534;-62
2020/12/28 11:20:23;;;;;;;8.33;4.60;;;5.80;99.90;;;;;;4986592;28;20443;-62
2020/12/28 11:22:49;;;;;;;12.50;4.87;;;5.70;99.90;;;;;;4986823;28;20447;-62
2020/12/28 11:25:16;;;;;;;5.60;4.60;;;5.70;99.90;;;;;;4986741;28;20471;-62
2020/12/28 11:27:43;;;;;;;9.33;5.77;;;5.70;99.90;;;;;;4986776;28;20486;-62
2020/12/28 11:30:10;;;;;;;6.63;4.80;;;5.70;99.90;;;;;;4986092;28;21132;-63
2020/12/28 11:32:37;;;;;;;7.23;5.23;;;5.70;99.90;;;;;;4986094;28;20530;-62
2020/12/28 11:35:04;;;;;;;7.43;5.10;;;5.70;99.90;;;;;;4985995;28;20523;-62
2020/12/28 11:37:31;;;;;;;8.80;4.30;;;5.80;99.90;;;;;;4985169;28;20482;-62
2020/12/28 11:39:58;;;;;;;7.73;5.27;;;5.80;99.90;;;;;;4984694;28;20536;-63
2020/12/28 11:42:24;;;;;;;6.67;5.03;;;5.80;99.90;;;;;;4983933;28;20457;-63
2020/12/28 11:44:51;;;;;;;8.33;4.50;;;5.80;99.90;;;;;;4985282;28;20533;-63
2020/12/28 11:47:18;;;;;;;5.77;5.00;;;5.80;99.90;;;;;;4985093;28;20493;-65
2020/12/28 11:49:44;;;;;;;9.87;4.70;;;5.90;99.90;;;;;;4985036;28;20458;-62
2020/12/28 11:52:12;;;;;;;8.80;4.90;;;5.90;99.90;;;;;;4985983;28;20458;-61
2020/12/28 11:54:39;;;;;;;6.50;4.87;;;5.90;99.90;;;;;;4985776;28;20559;-62
2020/12/28 11:57:05;;;;;;;7.83;4.57;;;5.90;99.90;;;;;;4985949;28;20513;-62
2020/12/28 11:59:31;;;;;;;7.23;4.77;;;5.90;99.90;;;;;;4988573;28;20470;-62
2020/12/28 12:01:59;;;;;;;9.93;5.80;;;5.90;99.90;;;;;;4989236;28;20497;-62
2020/12/28 12:07:06;;;;;;;6.40;4.70;;;5.90;99.90;;;;;;4988432;28;20442;-62
2020/12/28 12:09:32;;;;;;;7.63;5.23;;;5.90;99.90;;;;;;4989536;28;20478;-62
2020/12/28 12:11:59;;;;;;;7.87;4.77;;;5.90;99.90;;;;;;4988964;28;20535;-62
2020/12/28 12:14:25;;;;;;;7.87;5.30;;;5.80;99.90;;;;;;4989858;28;20481;-62
2020/12/28 12:16:52;;;;;;;8.40;5.50;;;5.80;99.90;;;;;;4989209;28;20531;-61
2020/12/28 12:19:20;;;;;;;9.70;6.60;;;5.80;99.90;;;;;;4989537;28;20443;-62
2020/12/28 12:21:46;;;;;;;8.17;5.00;;;5.80;99.90;;;;;;4989343;28;20462;-62
2020/12/28 12:24:13;;;;;;;10.43;6.70;;;5.90;99.90;;;;;;4988629;28;20521;-63
2020/12/28 12:26:39;;;;;;;10.93;6.20;;;5.90;99.90;;;;;;4989096;28;20804;-63
2020/12/28 12:29:05;;;;;;;8.83;5.93;;;5.90;99.90;;;;;;4988760;28;20569;-62
2020/12/28 12:31:32;;;;;;;10.40;6.87;;;5.80;99.90;;;;;;4989038;28;20479;-62
2020/12/28 12:33:58;;;;;;;7.50;4.90;;;5.80;99.90;;;;;;4989424;28;20756;-62
2020/12/28 12:36:25;;;;;;;9.07;5.33;;;5.80;99.90;;;;;;4989823;28;20497;-62
2020/12/28 12:38:52;;;;;;;6.83;5.63;;;5.80;99.90;;;;;;4989784;28;20451;-63
2020/12/28 12:41:21;;;;;;;10.20;6.87;;;5.80;99.90;;;;;;4988833;28;20518;-62
2020/12/28 12:43:47;;;;;;;6.73;4.87;;;5.90;99.90;;;;;;4988636;28;20451;-62
2020/12/28 12:46:14;;;;;;;8.40;4.93;;;5.90;99.90;;;;;;4988409;28;20981;-61
2020/12/28 12:48:41;;;;;;;8.87;6.00;;;5.90;99.90;;;;;;4988763;28;20482;-62
2020/12/28 12:51:08;;;;;;;11.20;5.23;;;5.90;99.90;;;;;;4989167;28;20431;-62
2020/12/28 12:53:35;;;;;;;8.60;6.00;;;5.90;99.90;;;;;;4988237;28;20467;-63
2020/12/28 12:56:02;;;;;;;7.93;5.77;;;5.90;99.90;;;;;;4988441;28;20438;-62
2020/12/28 12:58:28;;;;;;;7.43;4.93;;;5.80;99.90;;;;;;4988944;28;20780;-62